This is the latest recevied weather packets stored in our database for station/object KC6UTR. If no packets are shown the sender has not sent any weather packets the latest 10 day(s).
| Time | Temp. | Humidity | Pressure | Rain* | Wind** | Luminosity | Snow |
|---|---|---|---|---|---|---|---|
| 1777769417 | 26.11° C | 16% | 1013.1 hPa | 0 mm | - | - | - |
| 1777765816 | 26.11° C | 17% | 1013.4 hPa | 0 mm | - | - | - |
| 1777764656 | 26.11° C | 16% | 1013.4 hPa | 0 mm | - | - | - |
| 1777763416 | 26.67° C | 16% | 1013.7 hPa | 0 mm | - | - | - |
| 1777759816 | 27.22° C | 16% | 1014.3 hPa | 0 mm | - | - | - |
| 1777752016 | 25.56° C | 16% | 1016.8 hPa | 0 mm | - | - | - |
| 1777747216 | 25° C | 18% | 1018.5 hPa | 0 mm | - | - | - |
| 1777746616 | 25° C | 18% | 1018.7 hPa | 0 mm | - | - | - |
| 1777744216 | 24.44° C | 18% | 1018.5 hPa | 0 mm | - | - | - |
| 1777742416 | 23.89° C | 19% | 1018.8 hPa | 0 mm | - | - | - |
| 1777737016 | 21.67° C | 21% | 1018.3 hPa | 0 mm | - | - | - |
| 1777735216 | 21.11° C | 21% | 1018.5 hPa | 0 mm | - | - | - |
| 1777730415 | 16.11° C | 28% | 1017.7 hPa | 0 mm | - | - | - |
| 1777725617 | 13.33° C | 31% | 1016.6 hPa | 0 mm | - | - | - |
| 1777724417 | 13.33° C | 29% | 1016.4 hPa | 0 mm | - | - | - |
| 1777722017 | 14.44° C | 26% | 1016.7 hPa | 0 mm | - | - | - |
| 1777721417 | 15° C | 26% | 1016.4 hPa | 0 mm | - | - | - |
| 1777717237 | 12.78° C | 31% | 1016.2 hPa | 0 mm | - | - | - |
| 1777706416 | 17.78° C | 22% | 1017.5 hPa | 0 mm | - | - | - |
| 1777705816 | 17.78° C | 21% | 1017.4 hPa | 0 mm | - | - | - |
| 1777701035 | 18.33° C | 23% | 1016.8 hPa | 0 mm | - | - | - |
| 1777699235 | 18.33° C | 23% | 1016.4 hPa | 0 mm | - | - | - |
| 1777695016 | 18.89° C | 23% | 1015.6 hPa | 0 mm | - | - | - |
| 1777692615 | 18.89° C | 22% | 1013.8 hPa | 0 mm | - | - | - |
| 1777691417 | 19.44° C | 22% | 1013.4 hPa | 0 mm | - | - | - |
* Rain latest hour (hover to see other rain measurements)
** Current wind speed in m/s (hover to see current wind gust speed)